Flight Track Log - Related Links

Times and Time Zones

All times are in EDT time to prevent confusion due to time zone crossing. See the SWA568 flight status page for this flight to view local times or setup timezone preferences in your user account.

Time Position Orientation Groundspeed Altitude Reporting Facility
EDT Latitude Longitude Course Direction KTS MPH feet Rate Location/Type
Mon 04:27:14 PM 42.9333 -87.9667 270° West 260 299 4,400  Level KMKE
Mon 04:29:30 PM 43.0742 -88.0697 332° Northwest 252 290 10,400 2,636 Climbing Minneapolis Center
Mon 04:30:32 PM 43.1347 -88.1378 321° Northwest 274 315 13,100 2,537 Climbing Minneapolis Center
Mon 04:31:33 PM 43.2069 -88.1997 328° Northwest 297 342 15,600 2,354 Climbing Minneapolis Center
Mon 04:32:42 PM 43.3053 -88.2653 334° Northwest 335 386 18,200 2,091 Climbing Chicago Center
Mon 04:33:45 PM 43.3964 -88.3203 336° Northwest 353 406 20,200 1,839 Climbing Chicago Center
Mon 04:34:46 PM 43.4925 -88.3786 336° Northwest 379 436 22,000 2,049 Climbing Chicago Center
Mon 04:35:48 PM 43.5981 -88.4725 327° Northwest 396 456 24,400 2,274 Climbing Chicago Center
Mon 04:36:50 PM 43.6542 -88.5933 303° West 379 436 26,700 1,935 Climbing Chicago Center
Mon 04:37:52 PM 43.7078 -88.7136 302° West 372 428 28,400 1,403 Climbing Chicago Center
Mon 04:38:54 PM 43.7483 -88.8489 293° West 383 441 29,600 774 Climbing Chicago Center
Mon 04:39:56 PM 43.7939 -89.0156 291° West 396 456 30,000 194 Climbing Chicago Center
Mon 04:40:58 PM 43.8339 -89.1650 290° West 410 472 30,000  Level Chicago Center
Mon 04:42:00 PM 43.8728 -89.3142 290° West 413 475 30,000 48 Level Chicago Center
Mon 04:43:02 PM 43.9131 -89.4628 291° West 413 475 30,100 919 Climbing Chicago Center
Mon 04:44:04 PM 43.9508 -89.6111 290° West 409 471 31,900 919 Climbing Chicago Center
Mon 04:45:06 PM 43.9986 -89.7842 291° West 410 472 32,000 48 Climbing Chicago Center
Mon 04:46:08 PM 44.0358 -89.9314 289° West 406 467 32,000  Level Chicago Center
Mon 04:46:26 PM 44.0408 -89.9564 286° West 405 466 32,000  Level Minneapolis Center
Mon 04:47:28 PM 44.0853 -90.1303 290° West 408 470 32,000  Level Minneapolis Center
Mon 04:48:30 PM 44.1242 -90.2783 290° West 408 470 32,000 48 Level Minneapolis Center
Mon 04:49:32 PM 44.1628 -90.4286 290° West 410 472 32,100 662 Climbing Minneapolis Center
Mon 04:50:46 PM 44.2019 -90.5836 289° West 414 476 33,500 1,368 Climbing Minneapolis Center
Mon 04:51:48 PM 44.2481 -90.7636 290° West 415 478 35,200 1,210 Climbing Minneapolis Center
Mon 04:52:50 PM 44.2844 -90.9103 289° West 409 471 36,000 353 Climbing Minneapolis Center
Mon 04:54:04 PM 44.3272 -91.0847 289° West 405 466 36,000  Level Minneapolis Center
Mon 04:55:06 PM 44.3708 -91.2603 289° West 401 461 36,000  Level Minneapolis Center
Mon 04:56:08 PM 44.4078 -91.4078 289° West 402 463 36,000  Level Minneapolis Center
Mon 04:57:10 PM 44.4442 -91.5572 289° West 406 467 36,000  Level Minneapolis Center
Mon 04:58:12 PM 44.4806 -91.7083 289° West 410 472 36,000  Level Minneapolis Center
Mon 04:59:14 PM 44.5178 -91.8594 289° West 412 474 36,000  Level Minneapolis Center
Mon 05:00:16 PM 44.5608 -92.0408 288° West 411 473 36,000  Level Minneapolis Center
Mon 05:01:18 PM 44.5969 -92.1933 288° West 414 476 36,000  Level Minneapolis Center
Mon 05:02:20 PM 44.6311 -92.3453 288° West 411 473 36,000  Level Minneapolis Center
Mon 05:03:22 PM 44.6672 -92.4953 289° West 409 471 36,000  Level Minneapolis Center
Mon 05:04:36 PM 44.7017 -92.6461 288° West 407 468 36,000  Level Minneapolis Center
Mon 05:05:39 PM 44.7503 -92.8567 288° West 408 470 36,000  Level Minneapolis Center
Mon 05:06:40 PM 44.7842 -93.0050 288° West 404 465 36,000  Level Minneapolis Center
Mon 05:07:42 PM 44.8158 -93.1422 288° West 403 464 36,000  Level Minneapolis Center
Mon 05:08:44 PM 44.8497 -93.2919 288° West 405 466 36,000  Level Minneapolis Center
Mon 05:09:46 PM 44.8836 -93.4433 288° West 402 463 36,000  Level Minneapolis Center
Mon 05:10:48 PM 44.9225 -93.6217 287° West 400 460 36,000  Level Minneapolis Center
Mon 05:11:50 PM 44.9556 -93.7725 287° West 404 465 36,000  Level Minneapolis Center
Mon 05:12:52 PM 44.9886 -93.9217 287° West 402 463 36,000 435 Level Minneapolis Center
Mon 05:13:54 PM 45.0214 -94.0725 287° West 402 463 36,900 968 Climbing Minneapolis Center
Mon 05:14:56 PM 45.0603 -94.2531 287° West 403 464 38,000 532 Climbing Minneapolis Center
Mon 05:15:58 PM 45.0922 -94.4031 287° West 400 460 38,000  Level Minneapolis Center
Mon 05:17:00 PM 45.1233 -94.5517 287° West 398 458 38,000  Level Minneapolis Center
Mon 05:18:14 PM 45.1531 -94.6925 287° West 399 459 38,000  Level Minneapolis Center
Mon 05:19:16 PM 45.1969 -94.9033 287° West 401 461 38,000  Level Minneapolis Center
Mon 05:20:18 PM 45.2281 -95.0539 286° West 400 460 38,000  Level Minneapolis Center
Mon 05:21:20 PM 45.2522 -95.1756 286° West 401 461 38,000  Level Minneapolis Center
Mon 05:22:22 PM 45.2889 -95.3556 286° West 400 460 38,000  Level Minneapolis Center
Mon 05:23:24 PM 45.3133 -95.4761 286° West 399 459 38,000  Level Minneapolis Center
Mon 05:24:26 PM 45.3553 -95.6819 286° West 393 452 38,000  Level Minneapolis Center
Mon 05:25:28 PM 45.3833 -95.8283 285° West 388 447 38,000  Level Minneapolis Center
Mon 05:26:30 PM 45.4058 -95.9436 286° West 384 442 38,000  Level Minneapolis Center
Mon 05:27:32 PM 45.4411 -96.1181 286° West 384 442 38,000  Level Minneapolis Center
Mon 05:28:34 PM 45.4692 -96.2647 285° West 386 444 38,000  Level Minneapolis Center
Mon 05:29:36 PM 45.4969 -96.4108 285° West 385 443 38,000  Level Minneapolis Center
Mon 05:30:38 PM 45.5303 -96.5844 285° West 382 440 38,000  Level Minneapolis Center
Mon 05:31:40 PM 45.5578 -96.7275 285° West 379 436 38,000  Level Minneapolis Center
Mon 05:32:42 PM 45.5836 -96.8675 285° West 371 427 38,000  Level Minneapolis Center
Mon 05:33:44 PM 45.6114 -97.0056 286° West 366 421 38,000  Level Minneapolis Center
Mon 05:34:46 PM 45.6375 -97.1442 285° West 364 419 38,000  Level Minneapolis Center
Mon 05:35:48 PM 45.6619 -97.2836 284° West 363 418 38,000  Level Minneapolis Center
Mon 05:36:50 PM 45.6925 -97.4497 285° West 364 419 38,000  Level Minneapolis Center
Mon 05:38:03 PM 45.7183 -97.5928 285° West 372 428 38,000  Level Minneapolis Center
Mon 05:39:06 PM 45.7492 -97.7589 285° West 365 420 38,000  Level Minneapolis Center
Mon 05:40:08 PM 45.7736 -97.8989 284° West 364 419 38,000  Level Minneapolis Center
Mon 05:41:09 PM 45.7983 -98.0400 284° West 366 421 38,000  Level Minneapolis Center
Mon 05:42:11 PM 45.8297 -98.2086 285° West 369 425 38,000  Level Minneapolis Center
Mon 05:43:25 PM 45.8542 -98.3536 284° West 373 429 38,000  Level Minneapolis Center
Mon 05:44:27 PM 45.8836 -98.5239 284° West 370 426 38,000  Level Minneapolis Center
Mon 05:45:29 PM 45.9072 -98.6650 284° West 367 422 38,000  Level Minneapolis Center
Mon 05:46:31 PM 45.9319 -98.8075 284° West 367 422 38,000  Level Minneapolis Center
Mon 05:47:33 PM 45.9553 -98.9492 283° West 367 422 38,000  Level Minneapolis Center
Mon 05:48:34 PM 45.9783 -99.0908 283° West 366 421 38,000  Level Minneapolis Center
Mon 05:49:36 PM 46.0072 -99.2611 284° West 367 422 38,000  Level Minneapolis Center
Mon 05:50:38 PM 46.0294 -99.4022 283° West 365 420 38,000  Level Minneapolis Center
Mon 05:51:40 PM 46.0528 -99.5467 283° West 368 423 38,000  Level Minneapolis Center
Mon 05:52:42 PM 46.0758 -99.6908 283° West 370 426 38,000  Level Minneapolis Center
Mon 05:53:55 PM 46.0994 -99.8361 283° West 374 430 38,000  Level Minneapolis Center
Mon 05:54:58 PM 46.1256 -100.0072 282° West 368 423 38,000  Level Minneapolis Center
Mon 05:55:59 PM 46.1539 -100.1822 283° West 374 430 38,000  Level Minneapolis Center
Mon 05:57:01 PM 46.1756 -100.3225 283° West 362 417 38,000  Level Minneapolis Center
Mon 05:58:03 PM 46.1969 -100.4611 283° West 358 412 38,000  Level Minneapolis Center
Mon 05:59:05 PM 46.2175 -100.6008 282° West 356 410 38,000  Level Minneapolis Center
Mon 06:00:07 PM 46.2389 -100.7408 283° West 358 412 38,000  Level Minneapolis Center
Mon 06:01:08 PM 46.2597 -100.8819 282° West 360 414 38,000  Level Minneapolis Center
Mon 06:02:10 PM 46.2844 -101.0517 282° West 361 415 38,000  Level Minneapolis Center
Mon 06:03:12 PM 46.3050 -101.1914 282° West 358 412 38,000  Level Minneapolis Center
Mon 06:04:13 PM 46.3217 -101.3061 282° West 360 414 38,000  Level Minneapolis Center
Mon 06:05:16 PM 46.3461 -101.4775 282° West 362 417 38,000  Level Minneapolis Center
Mon 06:06:18 PM 46.3672 -101.6225 282° West 365 420 38,000  Level Minneapolis Center
Mon 06:07:19 PM 46.3881 -101.7703 282° West 369 425 38,000  Level Minneapolis Center
Mon 06:08:21 PM 46.4078 -101.9181 281° West 372 428 38,000 -48 Level Minneapolis Center
Mon 06:09:23 PM 46.4364 -102.0928 283° West 376 433 37,900  Descending Minneapolis Center
Mon 06:10:37 PM 46.4569 -102.2411 281° West 377 434 38,000 44 Climbing Minneapolis Center
Mon 06:11:39 PM 46.4808 -102.4172 281° West 375 432 38,000  Level Minneapolis Center
Mon 06:12:41 PM 46.4997 -102.5661 280° West 373 429 38,000  Level Minneapolis Center
Mon 06:13:43 PM 46.5192 -102.7139 281° West 374 430 38,000  Level Minneapolis Center
Mon 06:14:45 PM 46.5378 -102.8606 281° West 372 428 38,000  Level Minneapolis Center
Mon 06:15:59 PM 46.5569 -103.0067 281° West 371 427 38,000  Level Minneapolis Center
Mon 06:16:44 PM 46.5728 -103.1547 279° West 370 426 38,000  Level Salt Lake Center
Mon 06:17:45 PM 46.5919 -103.2997 281° West 370 426 38,000  Level Salt Lake Center
Mon 06:18:47 PM 46.6108 -103.4458 281° West 368 423 38,000  Level Salt Lake Center
Mon 06:19:49 PM 46.6317 -103.6236 280° West 370 426 38,000  Level Salt Lake Center
Mon 06:20:50 PM 46.6494 -103.7731 280° West 371 427 38,000  Level Salt Lake Center
Mon 06:21:52 PM 46.6686 -103.9228 281° West 373 429 38,000  Level Salt Lake Center
Mon 06:22:53 PM 46.6861 -104.0758 280° West 379 436 38,000  Level Salt Lake Center
Mon 06:23:55 PM 46.7047 -104.2322 280° West 386 444 38,000  Level Salt Lake Center
Mon 06:24:57 PM 46.7214 -104.3861 279° West 386 444 38,000 -49 Level Salt Lake Center
Mon 06:25:58 PM 46.7386 -104.5419 279° West 388 447 37,900  Descending Salt Lake Center
Mon 06:27:00 PM 46.7567 -104.6981 280° West 389 448 38,000 49 Climbing Salt Lake Center
Mon 06:28:01 PM 46.7739 -104.8528 279° West 388 447 38,000  Level Salt Lake Center
Mon 06:29:03 PM 46.7958 -105.0372 280° West 385 443 38,000  Level Salt Lake Center
Mon 06:30:04 PM 46.8103 -105.1858 278° West 378 435 38,000  Level Salt Lake Center
Mon 06:31:06 PM 46.8278 -105.3347 280° West 373 429 38,000  Level Salt Lake Center
Mon 06:32:07 PM 46.8425 -105.4844 278° West 374 430 38,000  Level Salt Lake Center
Mon 06:33:09 PM 46.8589 -105.6392 279° West 376 433 38,000  Level Salt Lake Center
Mon 06:34:10 PM 46.8778 -105.8106 279° West 379 436 38,000  Level Salt Lake Center
Mon 06:35:12 PM 46.8914 -105.9408 279° West 380 437 38,000  Level Salt Lake Center
Mon 06:36:13 PM 46.9067 -106.0928 278° West 379 436 38,000  Level Salt Lake Center
Mon 06:37:15 PM 46.9242 -106.2758 278° West 380 437 38,000  Level Salt Lake Center
Mon 06:38:16 PM 46.9392 -106.4172 279° West 379 436 38,000  Level Salt Lake Center
Mon 06:39:18 PM 46.9558 -106.5861 278° West 376 433 38,000  Level Salt Lake Center
Mon 06:40:19 PM 46.9689 -106.7325 277° West 378 435 38,000  Level Salt Lake Center
Mon 06:41:21 PM 46.9853 -106.9003 278° West 375 432 38,000  Level Salt Lake Center
Mon 06:42:22 PM 46.9981 -107.0431 278° West 371 427 38,000  Level Salt Lake Center
Mon 06:43:36 PM 47.0108 -107.1894 277° West 377 434 38,000  Level Salt Lake Center
Mon 06:44:38 PM 47.0286 -107.3839 278° West 377 434 38,000  Level Salt Lake Center
Mon 06:45:39 PM 47.0411 -107.5322 277° West 383 441 38,000  Level Salt Lake Center
Mon 06:46:40 PM 47.0567 -107.7047 278° West 383 441 38,000  Level Salt Lake Center
Mon 06:47:42 PM 47.0703 -107.8544 278° West 386 444 38,000  Level Salt Lake Center
Mon 06:48:43 PM 47.0842 -108.0267 277° West 384 442 38,000  Level Salt Lake Center
Mon 06:49:45 PM 47.0958 -108.1769 277° West 386 444 38,000  Level Salt Lake Center
Mon 06:50:46 PM 47.1097 -108.3506 277° West 385 443 38,000  Level Salt Lake Center
Mon 06:51:48 PM 47.1217 -108.5003 277° West 385 443 38,000  Level Salt Lake Center
Mon 06:52:49 PM 47.1319 -108.6464 276° West 380 437 38,000  Level Salt Lake Center
Mon 06:53:50 PM 47.1450 -108.8169 276° West 377 434 38,000  Level Salt Lake Center
Mon 06:54:52 PM 47.1569 -108.9614 277° West 375 432 38,000  Level Salt Lake Center
Mon 06:55:53 PM 47.1672 -109.1092 276° West 384 442 38,000  Level Salt Lake Center
Mon 06:56:55 PM 47.1792 -109.2689 276° West 391 450 38,000  Level Salt Lake Center
Mon 06:57:56 PM 47.1942 -109.4583 277° West 390 449 38,000  Level Salt Lake Center
Mon 06:58:58 PM 47.2033 -109.6158 275° West 389 448 38,000  Level Salt Lake Center
Mon 06:59:59 PM 47.2139 -109.7686 276° West 381 438 38,000  Level Salt Lake Center
Mon 07:01:00 PM 47.2244 -109.9197 276° West 376 433 38,000  Level Salt Lake Center
Mon 07:02:02 PM 47.2333 -110.0747 275° West 378 435 38,000  Level Salt Lake Center
Mon 07:03:03 PM 47.2439 -110.2319 276° West 383 441 38,000  Level Salt Lake Center
Mon 07:04:05 PM 47.2533 -110.3886 275° West 385 443 38,000 -49 Level Salt Lake Center
Mon 07:05:06 PM 47.2631 -110.5453 275° West 385 443 37,900  Descending Salt Lake Center
Mon 07:06:08 PM 47.2728 -110.7025 275° West 385 443 38,000  Climbing Salt Lake Center
Mon 07:07:09 PM 47.2831 -110.8911 275° West 385 443 37,900  Descending Salt Lake Center
Mon 07:08:10 PM 47.2925 -111.0483 275° West 385 443 38,000 49 Climbing Salt Lake Center
Mon 07:09:12 PM 47.3003 -111.2064 274° West 386 444 38,000  Level Salt Lake Center
Mon 07:10:13 PM 47.3092 -111.3661 275° West 388 447 38,000  Level Salt Lake Center
Mon 07:11:15 PM 47.3181 -111.5261 275° West 388 447 38,000  Level Salt Lake Center
Mon 07:12:16 PM 47.3258 -111.6842 274° West 386 444 38,000  Level Salt Lake Center
Mon 07:13:17 PM 47.3336 -111.8403 274° West 384 442 38,000 -49 Level Salt Lake Center
Mon 07:14:19 PM 47.3408 -111.9953 274° West 379 436 37,900  Descending Salt Lake Center
Mon 07:15:20 PM 47.3489 -112.1503 274° West 379 436 38,000 49 Climbing Salt Lake Center
Mon 07:16:22 PM 47.3561 -112.3075 274° West 384 442 38,000  Level Salt Lake Center
Mon 07:17:23 PM 47.3617 -112.4656 273° West 386 444 38,000  Level Salt Lake Center
Mon 07:18:24 PM 47.3697 -112.6558 274° West 389 448 38,000  Level Salt Lake Center
Mon 07:19:26 PM 47.3772 -112.8150 274° West 392 451 38,000  Level Salt Lake Center
Mon 07:20:27 PM 47.3833 -112.9753 273° West 396 456 38,000  Level Salt Lake Center
Mon 07:21:29 PM 47.3894 -113.1367 273° West 395 455 38,000 -49 Level Salt Lake Center
Mon 07:22:30 PM 47.3967 -113.2981 274° West 394 453 37,900  Descending Salt Lake Center
Mon 07:23:32 PM 47.4014 -113.4550 273° West 385 443 38,000 49 Climbing Salt Lake Center
Mon 07:24:33 PM 47.4072 -113.6133 273° West 387 445 38,000 -49 Level Salt Lake Center
Mon 07:25:35 PM 47.4119 -113.7769 273° West 396 456 37,900  Descending Salt Lake Center
Mon 07:26:36 PM 47.4167 -113.9386 273° West 394 453 38,000 49 Climbing Salt Lake Center
Mon 07:27:38 PM 47.4217 -114.0983 273° West 391 450 38,000  Level Salt Lake Center
Mon 07:28:39 PM 47.4281 -114.2869 273° West 383 441 38,000  Level Salt Lake Center
Mon 07:29:41 PM 47.4314 -114.4436 272° West 381 438 38,000 -49 Level Salt Lake Center
Mon 07:30:42 PM 47.4356 -114.6025 272° West 387 445 37,900  Descending Salt Lake Center
Mon 07:31:21 PM 47.4392 -114.6964 273° West 381 438 38,000 60 Climbing Seattle Center
Mon 07:32:22 PM 47.4419 -114.8536 272° West 382 440 38,000  Level Seattle Center
Mon 07:33:23 PM 47.4456 -115.0114 272° West 383 441 38,000  Level Seattle Center
Mon 07:34:24 PM 47.4492 -115.1692 272° West 384 442 38,000  Level Seattle Center
Mon 07:35:25 PM 47.4522 -115.3269 272° West 385 443 38,000  Level Seattle Center
Mon 07:36:26 PM 47.4542 -115.4847 271° West 384 442 38,000  Level Seattle Center
Mon 07:37:27 PM 47.4578 -115.6425 272° West 384 442 38,000  Level Seattle Center
Mon 07:38:28 PM 47.4669 -115.8236 274° West 384 442 38,000  Level Seattle Center
Mon 07:39:29 PM 47.4769 -115.9739 276° West 373 429 38,000  Level Seattle Center
Mon 07:40:30 PM 47.4861 -116.1281 275° West 376 433 38,000  Level Seattle Center
Mon 07:41:31 PM 47.4942 -116.2806 275° West 375 432 38,000  Level Seattle Center
Mon 07:42:32 PM 47.5036 -116.4358 275° West 379 436 38,000  Level Seattle Center
Mon 07:43:32 PM 47.5125 -116.5900 275° West 378 435 38,000  Level Seattle Center
Mon 07:44:33 PM 47.5208 -116.7453 275° West 380 437 38,000 -49 Level Seattle Center
Mon 07:45:34 PM 47.5297 -116.9000 275° West 379 436 37,900  Descending Seattle Center
Mon 07:46:35 PM 47.5375 -117.0564 274° West 376 433 38,000  Climbing Seattle Center
Mon 07:47:36 PM 47.5450 -117.2142 274° West 367 422 37,900  Descending Seattle Center
Mon 07:48:37 PM 47.5519 -117.3644 274° West 365 420 38,000 50 Climbing Seattle Center
Mon 07:49:37 PM 47.5594 -117.5153 274° West 366 421 38,000  Level Seattle Center
Mon 07:50:38 PM 47.5672 -117.6631 275° West 363 418 38,000  Level Seattle Center
Mon 07:51:39 PM 47.5825 -117.8114 279° West 364 419 38,000  Level Seattle Center
Mon 07:52:40 PM 47.5967 -117.9583 278° West 360 414 38,000  Level Seattle Center
Mon 07:53:41 PM 47.6092 -118.1033 277° West 356 410 38,000  Level Seattle Center
Mon 07:54:42 PM 47.6222 -118.2492 278° West 359 413 38,000  Level Seattle Center
Mon 07:55:42 PM 47.6358 -118.3933 278° West 355 409 38,000  Level Seattle Center
Mon 07:56:43 PM 47.6489 -118.5372 278° West 354 407 38,000 -639 Level Seattle Center
Mon 07:57:44 PM 47.6644 -118.7144 277° West 363 418 36,700 -1,082 Descending Seattle Center
Mon 07:58:45 PM 47.6764 -118.8608 277° West 360 414 35,800 -934 Descending Seattle Center
Mon 07:59:46 PM 47.6894 -119.0072 278° West 360 414 34,800 -934 Descending Seattle Center
Mon 08:00:47 PM 47.7014 -119.1492 277° West 349 402 33,900 -893 Descending Seattle Center
Mon 08:01:47 PM 47.7136 -119.2956 277° West 356 410 33,000 -942 Descending Seattle Center
Mon 08:02:48 PM 47.7247 -119.4394 277° West 353 406 32,000 -1,033 Descending Seattle Center
Mon 08:03:49 PM 47.7361 -119.5806 277° West 347 399 30,900 -984 Descending Seattle Center
Mon 08:04:50 PM 47.7478 -119.7217 277° West 347 399 30,000 -443 Descending Seattle Center
Mon 08:05:51 PM 47.7583 -119.8619 276° West 344 396 30,000  Level Seattle Center
Mon 08:06:52 PM 47.7672 -120.0019 275° West 342 394 30,000  Level Seattle Center
Mon 08:07:53 PM 47.7794 -120.1386 278° West 335 386 30,000  Level Seattle Center
Mon 08:08:54 PM 47.7886 -120.2739 276° West 332 382 30,000  Level Seattle Center
Mon 08:09:55 PM 47.7986 -120.4106 276° West 333 383 30,000  Level Seattle Center
Mon 08:10:55 PM 47.8081 -120.5483 276° West 334 384 30,000 -1,339 Level Seattle Center
Mon 08:11:56 PM 47.8200 -120.7108 276° West 330 380 27,300 -2,508 Descending Seattle Center
Mon 08:12:57 PM 47.8294 -120.8444 276° West 326 375 24,900 -2,115 Descending Seattle Center
Mon 08:13:58 PM 47.8381 -120.9564 277° West 313 360 23,000 -2,066 Descending Seattle Center
Mon 08:14:59 PM 47.8461 -121.0892 275° West 324 373 20,700 -2,164 Descending Seattle Center
Mon 08:16:00 PM 47.8564 -121.2203 277° West 322 371 18,600 -2,214 Descending Seattle Center
Mon 08:16:42 PM 47.8647 -121.3394 276° West 305 351 16,900 -2,164 Descending Seattle Center
Mon 08:17:01 PM 47.8644 -121.3678 269° West 297 342 16,400 -1,950 Descending Seattle Center
Mon 08:18:02 PM 47.8722 -121.4853 276° West 291 335 14,300 -1,890 Descending Seattle Center
Mon 08:19:08 PM 47.8831 -121.6242 277° West 291 335 12,400 -1,131 Descending Seattle Center
Mon 08:20:04 PM 47.8761 -121.7153 264° West 277 319 12,000 -724 Descending Seattle Center
Mon 08:21:04 PM 47.8328 -121.8028 234° Southwest 268 308 11,000 -1,308 Descending Seattle Center
Mon 08:21:22 PM 47.8214 -121.8444 248° West 265 305 10,300 -1,475 Descending Seattle Center
Mon 08:22:05 PM 47.8031 -121.9036 245° Southwest 269 310 9,500 -1,475 Descending Seattle Center
Mon 08:22:23 PM 47.7914 -121.9442 247° West 262 302 8,800 -1,574 Descending Seattle Center
Mon 08:23:06 PM 47.7750 -122.0000 246° West 260 299 7,900 -1,673 Descending Seattle Center
Mon 08:24:07 PM 47.7367 -122.1136 243° Southwest 257 296 5,900 -2,051 Descending Seattle Center
Mon 08:24:25 PM 47.7261 -122.1425 241° Southwest 257 296 5,200 -1,770 Descending Seattle Center
Mon 08:25:08 PM 47.6989 -122.2053 237° Southwest 261 300 4,100 -1,075 Descending Seattle Center
Mon 08:25:32 PM 47.6864 -122.2403 242° Southwest 260 299 4,000 -98 Descending Seattle Center
Mon 08:26:09 PM 47.6656 -122.2883 237° Southwest 237 273 4,000 109 Level Seattle Center
Mon 08:26:27 PM 47.6553 -122.3103 235° Southwest 214 246 4,100 -197 Climbing Seattle Center
Mon 08:27:10 PM 47.6153 -122.3097 179° South 214 246 3,800 -393 Descending Seattle Center
Mon 08:27:28 PM 47.5972 -122.3094 179° South 198 228 3,700 -984 Descending Seattle Center
Mon 08:28:11 PM 47.5614 -122.3108 181° South 195 224 2,800 -1,377 Descending Seattle Center
Mon 08:28:29 PM 47.5467 -122.3111 181° South 184 212 2,300 -1,180 Descending Seattle Center
Mon 08:29:12 PM 47.5119 -122.3111 180° South 181 208 1,600 -985 Descending Seattle Center
Mon 08:29:36 PM 47.4933 -122.3111 180° South 145 167 1,200 -885 Descending Seattle Center
Mon 08:30:13 PM 47.4742 -122.3111 180° South 138 159 700 -495 Descending Seattle Center
Mon 08:31:13 PM 47.4389 -122.3136 183° South 133 153 400 -300 Descending Seattle Center

Login

Don't have an account? Register now (free) for customized features, flight alerts, and more!